createdAt,value
2022-09-15T00:00:54.831Z,5.45
2022-09-15T00:01:56.758Z,7.10
2022-09-15T00:02:58.384Z,6.50
2022-09-15T00:03:59.951Z,4.93
2022-09-15T00:05:01.409Z,6.55
2022-09-15T00:06:03.775Z,6.32
2022-09-15T00:07:05.680Z,8.55
2022-09-15T00:08:07.142Z,5.32
2022-09-15T00:09:08.710Z,7.13
2022-09-15T00:10:10.787Z,6.28
2022-09-15T00:11:20.740Z,5.32
2022-09-15T00:12:22.453Z,5.90
2022-09-15T00:13:25.804Z,5.57
2022-09-15T00:14:27.632Z,5.50
2022-09-15T00:15:29.332Z,7.20
2022-09-15T00:16:32.956Z,7.03
2022-09-15T00:17:35.863Z,6.07
2022-09-15T00:18:39.852Z,5.57
2022-09-15T00:19:41.345Z,5.65
2022-09-15T00:20:44.581Z,6.30
2022-09-15T00:21:46.933Z,5.63
2022-09-15T00:22:49.066Z,7.97
2022-09-15T00:23:51.615Z,6.68
2022-09-15T00:24:53.182Z,6.82
2022-09-15T00:25:55.171Z,5.15
2022-09-15T00:26:57.099Z,5.65
2022-09-15T00:27:58.765Z,6.00
2022-09-15T00:29:01.407Z,7.15
2022-09-15T00:30:04.251Z,6.70
2022-09-15T00:32:09.233Z,6.43
2022-09-15T00:33:11.561Z,5.07
2022-09-15T00:34:14.145Z,5.13
2022-09-15T00:35:15.875Z,5.82
2022-09-15T00:36:18.522Z,5.30
2022-09-15T00:37:20.012Z,4.68
2022-09-15T00:38:22.037Z,4.55
2022-09-15T00:39:23.604Z,5.38
2022-09-15T00:40:25.771Z,5.35
2022-09-15T00:41:27.716Z,5.65
2022-09-15T00:42:29.419Z,6.28
2022-09-15T00:43:51.479Z,4.93
2022-09-15T00:44:59.130Z,8.52
2022-09-15T00:46:00.773Z,5.40
2022-09-15T00:47:18.661Z,6.07
2022-09-15T00:48:22.874Z,5.43
2022-09-15T00:49:31.752Z,9.15
2022-09-15T00:50:34.721Z,7.20
2022-09-15T00:51:40.517Z,5.65
2022-09-15T00:52:56.324Z,6.00
2022-09-15T00:54:04.219Z,7.13
2022-09-15T00:55:31.211Z,6.60
2022-09-15T00:56:34.813Z,6.45
2022-09-15T00:57:51.175Z,5.32
2022-09-15T00:58:57.918Z,5.20
2022-09-15T01:00:03.864Z,9.45
2022-09-15T01:01:08.544Z,8.38
2022-09-15T01:02:28.838Z,6.45
2022-09-15T01:03:33.215Z,6.30
2022-09-15T01:04:34.714Z,7.25
2022-09-15T01:05:43.029Z,6.65
2022-09-15T01:06:52.013Z,8.35
2022-09-15T01:09:01.940Z,6.07
2022-09-15T01:10:08.502Z,4.55
2022-09-15T01:11:10.461Z,5.28
2022-09-15T01:12:12.034Z,5.28
2022-09-15T01:13:14.837Z,5.35
2022-09-15T01:14:16.621Z,4.57
2022-09-15T01:15:18.393Z,5.50
2022-09-15T01:16:33.444Z,5.50
2022-09-15T01:18:57.248Z,6.15
2022-09-15T01:20:21.371Z,7.25
2022-09-15T01:21:45.449Z,5.97
2022-09-15T01:23:05.292Z,7.13
2022-09-15T01:24:45.133Z,6.03
2022-09-15T01:26:17.573Z,6.25
2022-09-15T01:27:42.189Z,5.15
2022-09-15T01:29:03.861Z,5.53
2022-09-15T01:30:16.116Z,4.45
2022-09-15T01:31:26.765Z,5.60
2022-09-15T01:33:01.286Z,6.10
2022-09-15T01:34:18.596Z,6.38
2022-09-15T01:35:40.666Z,5.45
2022-09-15T01:36:52.721Z,6.80
2022-09-15T01:38:24.783Z,6.95
2022-09-15T01:39:33.009Z,5.28
2022-09-15T01:40:44.794Z,4.65
2022-09-15T01:41:51.154Z,8.35
2022-09-15T01:42:54.052Z,6.22
2022-09-15T01:45:11.457Z,6.10
2022-09-15T01:46:15.403Z,7.07
2022-09-15T01:47:21.082Z,5.50
2022-09-15T01:48:26.488Z,6.68
2022-09-15T01:49:53.118Z,5.93
2022-09-15T01:51:00.355Z,6.28
2022-09-15T01:52:02.344Z,7.05
2022-09-15T01:53:12.269Z,6.03
2022-09-15T01:54:16.321Z,8.68
2022-09-15T01:55:40.511Z,5.57
2022-09-15T01:56:42.111Z,5.75
2022-09-15T01:57:44.067Z,5.30
2022-09-15T01:58:45.623Z,5.50
2022-09-15T01:59:48.928Z,7.30
2022-09-15T02:00:58.893Z,7.95
2022-09-15T02:02:05.765Z,6.28
2022-09-15T02:03:27.166Z,4.68
2022-09-15T02:04:36.773Z,5.18
2022-09-15T02:05:45.063Z,5.00
2022-09-15T02:06:56.021Z,6.15
2022-09-15T02:08:25.607Z,6.72
2022-09-15T02:09:36.798Z,7.50
2022-09-15T02:10:45.011Z,4.78
2022-09-15T02:12:12.344Z,5.78
2022-09-15T02:15:03.531Z,6.57
2022-09-15T02:16:15.294Z,5.60
2022-09-15T02:17:19.813Z,6.13
2022-09-15T02:18:36.352Z,5.60
2022-09-15T02:19:41.801Z,6.43
2022-09-15T02:21:03.558Z,6.53
2022-09-15T02:22:10.622Z,6.40
2022-09-15T02:23:23.793Z,5.85
2022-09-15T02:24:31.028Z,6.43
2022-09-15T02:25:37.982Z,5.95
2022-09-15T02:26:41.198Z,6.25
2022-09-15T02:27:50.148Z,8.20
2022-09-15T02:30:03.221Z,5.72
2022-09-15T02:31:08.951Z,6.47
2022-09-15T02:32:13.686Z,6.35
2022-09-15T02:33:24.110Z,5.65
2022-09-15T02:34:32.440Z,5.78
2022-09-15T02:35:36.142Z,5.95
2022-09-15T02:36:38.426Z,6.32
2022-09-15T02:37:40.217Z,6.38
2022-09-15T02:38:54.360Z,6.88
2022-09-15T02:40:00.276Z,5.45
2022-09-15T02:41:02.823Z,6.30
2022-09-15T02:42:04.880Z,7.57
2022-09-15T02:43:11.716Z,6.90
2022-09-15T02:44:13.228Z,34.53
2022-09-15T02:45:14.744Z,19.23
2022-09-15T02:46:21.296Z,13.98
2022-09-15T02:47:23.571Z,9.43
2022-09-15T02:48:25.683Z,8.23
2022-09-15T02:49:27.193Z,6.03
2022-09-15T02:50:28.689Z,5.13
2022-09-15T02:51:31.068Z,5.13
2022-09-15T02:52:32.596Z,5.47
2022-09-15T02:53:34.546Z,6.03
2022-09-15T02:54:35.992Z,6.38
2022-09-15T02:55:37.489Z,7.07
2022-09-15T02:56:39.011Z,9.73
2022-09-15T02:57:40.476Z,4.90
2022-09-15T02:58:43.534Z,6.28
2022-09-15T03:00:03.474Z,5.95
2022-09-15T03:01:06.692Z,7.97
2022-09-15T03:02:09.181Z,6.07
2022-09-15T03:03:11.036Z,7.25
2022-09-15T03:04:12.788Z,6.10
2022-09-15T03:05:15.566Z,6.25
2022-09-15T03:06:17.094Z,4.75
2022-09-15T03:07:19.364Z,6.38
2022-09-15T03:08:21.093Z,5.30
2022-09-15T03:09:22.554Z,6.63
2022-09-15T03:10:25.665Z,6.50
2022-09-15T03:11:29.355Z,5.47
2022-09-15T03:12:30.827Z,7.95
2022-09-15T03:13:32.268Z,5.72
2022-09-15T03:14:34.443Z,5.68
2022-09-15T03:15:36.925Z,7.57
2022-09-15T03:16:38.439Z,5.38
2022-09-15T03:17:44.689Z,7.60
2022-09-15T03:18:46.806Z,5.72
2022-09-15T03:19:48.622Z,5.63
2022-09-15T03:20:50.042Z,7.10
2022-09-15T03:21:51.984Z,6.05
2022-09-15T03:22:54.343Z,6.68
2022-09-15T03:23:58.318Z,6.90
2022-09-15T03:24:59.885Z,5.90
2022-09-15T03:26:02.264Z,6.25
2022-09-15T03:27:04.507Z,7.45
2022-09-15T03:28:05.967Z,7.60
2022-09-15T03:29:07.802Z,10.02
2022-09-15T03:30:10.483Z,5.65
2022-09-15T03:31:12.057Z,6.63
2022-09-15T03:32:13.583Z,6.07
2022-09-15T03:33:15.028Z,6.72
2022-09-15T03:34:16.975Z,6.07
2022-09-15T03:35:18.425Z,9.48
2022-09-15T03:36:19.862Z,6.15
2022-09-15T03:37:21.372Z,5.18
2022-09-15T03:38:23.246Z,6.97
2022-09-15T03:39:25.158Z,5.95
2022-09-15T03:40:26.669Z,5.43
2022-09-15T03:41:29.316Z,7.10
2022-09-15T03:42:30.930Z,7.72
2022-09-15T03:43:32.876Z,6.18
2022-09-15T03:44:35.792Z,6.18
2022-09-15T03:45:38.909Z,5.88
2022-09-15T03:46:40.417Z,8.48
2022-09-15T03:47:41.918Z,6.20
2022-09-15T03:48:43.782Z,6.53
2022-09-15T03:49:45.228Z,5.50
2022-09-15T03:50:47.267Z,6.75
2022-09-15T03:51:48.721Z,6.75
2022-09-15T03:52:50.569Z,7.07
2022-09-15T03:53:52.475Z,5.82
2022-09-15T03:54:54.063Z,6.18
2022-09-15T03:55:55.589Z,6.97
2022-09-15T03:56:57.085Z,6.38
2022-09-15T03:57:58.623Z,6.88
2022-09-15T03:59:02.184Z,6.90
2022-09-15T04:00:05.445Z,6.85
2022-09-15T04:01:07.035Z,6.93
2022-09-15T04:02:08.577Z,7.53
2022-09-15T04:03:10.385Z,6.80
2022-09-15T04:04:12.763Z,7.28
2022-09-15T04:05:14.670Z,8.10
2022-09-15T04:06:16.753Z,6.63
2022-09-15T04:07:18.198Z,7.00
2022-09-15T04:08:19.679Z,5.82
2022-09-15T04:09:21.892Z,6.15
2022-09-15T04:10:24.476Z,6.82
2022-09-15T04:11:26.470Z,5.70
2022-09-15T04:12:30.009Z,6.15
2022-09-15T04:13:31.986Z,5.30
2022-09-15T04:14:33.495Z,7.60
2022-09-15T04:15:34.937Z,8.02
2022-09-15T04:16:36.553Z,7.18
2022-09-15T04:17:38.037Z,5.50
2022-09-15T04:18:40.486Z,5.53
2022-09-15T04:19:41.941Z,7.30
2022-09-15T04:20:43.379Z,5.85
2022-09-15T04:21:45.762Z,6.05
2022-09-15T04:22:47.218Z,6.00
2022-09-15T04:23:49.871Z,5.13
2022-09-15T04:24:51.421Z,4.80
2022-09-15T04:26:04.239Z,5.28
2022-09-15T04:27:05.698Z,6.47
2022-09-15T04:28:07.174Z,5.35
2022-09-15T04:29:14.568Z,5.32
2022-09-15T04:30:16.038Z,4.63
2022-09-15T04:31:18.157Z,6.15
2022-09-15T04:32:20.610Z,5.68
2022-09-15T04:33:22.464Z,7.50
2022-09-15T04:34:24.957Z,4.95
2022-09-15T04:35:26.488Z,5.57
2022-09-15T04:36:28.940Z,4.93
2022-09-15T04:37:31.284Z,5.15
2022-09-15T04:38:33.460Z,4.70
2022-09-15T04:39:34.954Z,4.95
2022-09-15T04:40:36.752Z,5.70
2022-09-15T04:41:38.314Z,5.40
2022-09-15T04:42:40.024Z,5.38
2022-09-15T04:43:43.666Z,5.63
2022-09-15T04:44:45.089Z,7.30
2022-09-15T04:45:46.552Z,5.00
2022-09-15T04:46:48.786Z,6.47
2022-09-15T04:47:51.664Z,5.38
2022-09-15T04:48:54.219Z,5.20
2022-09-15T04:49:55.667Z,5.93
2022-09-15T04:51:08.793Z,5.75
2022-09-15T04:52:10.234Z,4.60
2022-09-15T04:53:11.668Z,7.15
2022-09-15T04:54:13.430Z,5.85
2022-09-15T04:55:14.940Z,6.35
2022-09-15T04:56:21.630Z,5.32
2022-09-15T04:57:23.046Z,6.13
2022-09-15T04:58:24.791Z,5.22
2022-09-15T04:59:26.259Z,5.30
2022-09-15T05:00:28.284Z,5.50
2022-09-15T05:01:32.307Z,5.80
2022-09-15T05:02:33.851Z,5.82
2022-09-15T05:03:37.556Z,6.45
2022-09-15T05:04:39.064Z,4.68
2022-09-15T05:05:41.264Z,5.10
2022-09-15T05:06:42.708Z,4.63
2022-09-15T05:07:44.225Z,5.85
2022-09-15T05:08:54.557Z,8.32
2022-09-15T05:09:56.098Z,5.45
2022-09-15T05:11:06.451Z,5.03
2022-09-15T05:12:08.022Z,5.13
2022-09-15T05:13:09.873Z,5.70
2022-09-15T05:14:11.823Z,6.43
2022-09-15T05:15:13.325Z,4.90
2022-09-15T05:16:18.241Z,6.60
2022-09-15T05:17:20.905Z,5.70
2022-09-15T05:18:24.091Z,6.90
2022-09-15T05:19:25.656Z,5.95
2022-09-15T05:20:27.101Z,6.13
2022-09-15T05:21:29.359Z,4.82
2022-09-15T05:22:31.103Z,5.38
2022-09-15T05:23:34.782Z,7.75
2022-09-15T05:24:36.240Z,7.13
2022-09-15T05:25:38.794Z,5.45
2022-09-15T05:26:41.806Z,5.80
2022-09-15T05:27:43.379Z,6.20
2022-09-15T05:28:45.285Z,6.78
2022-09-15T05:29:46.805Z,5.65
2022-09-15T05:30:48.659Z,7.28
2022-09-15T05:31:50.222Z,4.93
2022-09-15T05:32:53.717Z,5.80
2022-09-15T05:33:55.571Z,4.85
2022-09-15T05:34:57.020Z,7.13
2022-09-15T05:36:00.655Z,5.88
2022-09-15T05:37:02.610Z,5.72
2022-09-15T05:38:04.459Z,6.97
2022-09-15T05:39:05.915Z,5.45
2022-09-15T05:40:08.705Z,6.32
2022-09-15T05:41:12.157Z,5.10
2022-09-15T05:42:13.641Z,5.90
2022-09-15T05:43:16.347Z,5.60
2022-09-15T05:44:17.870Z,5.35
2022-09-15T05:45:19.370Z,5.75
2022-09-15T05:46:20.911Z,6.68
2022-09-15T05:47:23.356Z,5.07
2022-09-15T05:48:25.250Z,5.57
2022-09-15T05:49:26.758Z,4.93
2022-09-15T05:50:28.227Z,4.60
2022-09-15T05:51:30.268Z,5.35
2022-09-15T05:52:31.869Z,6.80
2022-09-15T05:53:35.599Z,6.50
2022-09-15T05:54:37.024Z,5.60
2022-09-15T05:55:38.478Z,5.60
2022-09-15T05:56:40.055Z,6.20
2022-09-15T05:57:41.665Z,5.57
2022-09-15T05:58:45.897Z,6.18
2022-09-15T05:59:47.449Z,6.43
2022-09-15T06:00:49.208Z,6.68
2022-09-15T06:01:50.701Z,5.75
2022-09-15T06:02:52.293Z,6.22
2022-09-15T06:03:55.370Z,6.45
2022-09-15T06:04:56.867Z,5.53
2022-09-15T06:05:59.994Z,6.05
2022-09-15T06:07:01.415Z,5.65
2022-09-15T06:08:03.159Z,7.43
2022-09-15T06:09:05.637Z,7.90
2022-09-15T06:10:07.941Z,6.22
2022-09-15T06:11:15.672Z,7.15
2022-09-15T06:12:18.425Z,5.97
2022-09-15T06:13:20.214Z,6.03
2022-09-15T06:14:21.611Z,5.97
2022-09-15T06:15:23.810Z,6.50
2022-09-15T06:16:25.349Z,7.57
2022-09-15T06:17:27.294Z,5.40
2022-09-15T06:18:28.808Z,5.82
2022-09-15T06:19:30.388Z,6.93
2022-09-15T06:20:31.894Z,5.50
2022-09-15T06:21:33.637Z,5.90
2022-09-15T06:22:35.448Z,7.00
2022-09-15T06:23:38.007Z,7.30
2022-09-15T06:24:39.481Z,6.00
2022-09-15T06:25:40.936Z,6.05
2022-09-15T06:26:42.388Z,6.88
2022-09-15T06:27:43.861Z,6.47
2022-09-15T06:28:59.165Z,5.45
2022-09-15T06:30:00.636Z,8.57
2022-09-15T06:31:02.211Z,8.18
2022-09-15T06:32:05.135Z,6.82
2022-09-15T06:33:06.881Z,6.28
2022-09-15T06:34:11.309Z,6.15
2022-09-15T06:35:12.824Z,7.68
2022-09-15T06:36:15.951Z,5.88
2022-09-15T06:37:17.895Z,7.95
2022-09-15T06:38:19.323Z,5.75
2022-09-15T06:39:20.777Z,5.82
2022-09-15T06:40:22.363Z,5.85
2022-09-15T06:41:24.443Z,6.78
2022-09-15T06:42:26.203Z,7.38
2022-09-15T06:43:27.725Z,6.03
2022-09-15T06:44:29.419Z,10.82
2022-09-15T06:45:31.189Z,6.78
2022-09-15T06:46:32.711Z,7.53
2022-09-15T06:47:34.325Z,6.80
2022-09-15T06:48:37.197Z,5.97
2022-09-15T06:50:40.006Z,6.05
2022-09-15T06:51:42.031Z,5.75
2022-09-15T06:52:43.959Z,6.50
2022-09-15T06:53:46.225Z,4.10
2022-09-15T06:54:48.108Z,3.97
2022-09-15T06:55:50.128Z,3.53
2022-09-15T06:56:51.562Z,4.30
2022-09-15T06:57:53.052Z,3.92
2022-09-15T06:58:55.983Z,3.30
2022-09-15T07:01:04.127Z,2.72
2022-09-15T07:02:05.646Z,2.63
2022-09-15T07:03:07.467Z,3.28
2022-09-15T07:04:10.022Z,1.95
2022-09-15T07:05:11.545Z,2.58
2022-09-15T07:06:13.313Z,2.97
2022-09-15T07:07:15.089Z,3.42
2022-09-15T07:08:17.175Z,2.60
2022-09-15T07:09:19.531Z,2.75
2022-09-15T07:10:21.010Z,2.33
2022-09-15T07:11:22.847Z,3.47
2022-09-15T07:12:24.273Z,3.88
2022-09-15T07:13:26.219Z,3.75
2022-09-15T07:14:27.647Z,2.25
2022-09-15T07:15:29.406Z,3.83
2022-09-15T07:16:30.896Z,2.70
2022-09-15T07:17:32.748Z,3.20
2022-09-15T07:18:37.669Z,2.33
2022-09-15T07:19:43.164Z,2.15
2022-09-15T07:20:44.797Z,2.70
2022-09-15T07:21:46.232Z,2.78
2022-09-15T07:22:47.686Z,4.40
2022-09-15T07:23:49.762Z,2.63
2022-09-15T07:24:51.166Z,3.13
2022-09-15T07:25:52.620Z,2.35
2022-09-15T07:26:54.638Z,3.00
2022-09-15T07:27:56.077Z,2.53
2022-09-15T07:29:03.718Z,2.35
2022-09-15T07:30:08.554Z,2.60
2022-09-15T07:31:14.073Z,3.35
2022-09-15T07:32:15.580Z,3.17
2022-09-15T07:33:17.065Z,3.08
2022-09-15T07:34:18.769Z,2.58
2022-09-15T07:35:21.772Z,3.17
2022-09-15T07:36:23.298Z,3.45
2022-09-15T07:37:25.052Z,3.13
2022-09-15T07:38:26.565Z,2.10
2022-09-15T07:39:29.046Z,2.28
2022-09-15T07:40:31.505Z,2.88
2022-09-15T07:41:33.365Z,2.00
2022-09-15T07:42:35.648Z,3.22
2022-09-15T07:43:37.456Z,2.15
2022-09-15T07:44:38.943Z,2.83
2022-09-15T07:45:40.724Z,2.60
2022-09-15T07:46:42.223Z,2.53
2022-09-15T07:47:43.742Z,2.63
2022-09-15T07:48:46.800Z,1.77
2022-09-15T07:49:48.240Z,1.58
2022-09-15T07:50:49.740Z,2.33
2022-09-15T07:51:51.250Z,1.63
2022-09-15T07:52:56.172Z,1.88
2022-09-15T07:53:57.703Z,2.60
2022-09-15T07:54:59.155Z,2.30
2022-09-15T07:56:00.632Z,2.53
2022-09-15T07:57:02.318Z,3.03
2022-09-15T07:58:03.860Z,2.70
2022-09-15T07:59:05.402Z,3.25
2022-09-15T08:00:07.731Z,1.65
2022-09-15T08:01:14.859Z,1.42
2022-09-15T08:02:18.615Z,2.67
2022-09-15T08:03:20.124Z,2.17
2022-09-15T08:04:21.566Z,2.05
2022-09-15T08:05:28.107Z,1.85
2022-09-15T08:06:29.823Z,1.73
2022-09-15T08:07:34.462Z,2.78
2022-09-15T08:08:41.329Z,1.63
2022-09-15T08:09:42.890Z,2.80
2022-09-15T08:10:44.739Z,1.55
2022-09-15T08:11:49.051Z,2.05
2022-09-15T08:12:54.621Z,2.10
2022-09-15T08:13:56.304Z,1.73
2022-09-15T08:14:58.049Z,2.55
2022-09-15T08:16:10.982Z,1.98
2022-09-15T08:17:13.223Z,3.08
2022-09-15T08:18:15.308Z,1.98
2022-09-15T08:19:17.357Z,2.78
2022-09-15T08:20:19.988Z,2.47
2022-09-15T08:21:22.901Z,2.45
2022-09-15T08:23:27.019Z,2.60
2022-09-15T08:24:29.344Z,2.08
2022-09-15T08:25:31.406Z,2.00
2022-09-15T08:26:32.882Z,1.92
2022-09-15T08:27:34.375Z,2.75
2022-09-15T08:28:36.434Z,1.75
2022-09-15T08:29:37.994Z,2.80
2022-09-15T08:30:39.546Z,1.88
2022-09-15T08:31:41.438Z,2.10
2022-09-15T08:32:43.018Z,2.20
2022-09-15T08:33:49.844Z,3.53
2022-09-15T08:34:51.526Z,2.20
2022-09-15T08:35:53.995Z,2.13
2022-09-15T08:36:56.356Z,2.30
2022-09-15T08:37:58.015Z,2.60
2022-09-15T08:38:59.791Z,2.33
2022-09-15T08:40:01.766Z,2.00
2022-09-15T08:41:06.533Z,2.40
2022-09-15T08:42:15.844Z,1.75
2022-09-15T08:43:24.676Z,2.33
2022-09-15T08:44:32.069Z,1.83
2022-09-15T08:45:47.930Z,2.25
2022-09-15T08:47:01.032Z,2.88
2022-09-15T08:48:04.841Z,2.88
2022-09-15T08:49:41.234Z,2.35
2022-09-15T08:50:50.107Z,2.10
2022-09-15T08:51:53.330Z,2.22
2022-09-15T08:53:20.101Z,2.33
2022-09-15T08:54:25.278Z,1.92
2022-09-15T08:55:48.231Z,2.38
2022-09-15T08:56:50.787Z,2.25
2022-09-15T08:57:55.582Z,4.80
2022-09-15T08:58:57.127Z,2.50
2022-09-15T08:59:59.638Z,3.53
2022-09-15T09:01:32.537Z,1.48
2022-09-15T09:03:15.654Z,2.00
2022-09-15T09:04:28.909Z,3.30
2022-09-15T09:05:57.486Z,2.28
2022-09-15T09:07:17.969Z,2.65
2022-09-15T09:08:30.676Z,2.22
2022-09-15T09:09:59.971Z,2.50
2022-09-15T09:11:40.326Z,2.33
2022-09-15T09:12:49.122Z,2.53
2022-09-15T09:14:04.711Z,2.83
2022-09-15T09:15:31.300Z,2.50
2022-09-15T09:17:02.621Z,2.75
2022-09-15T09:18:22.605Z,2.17
2022-09-15T09:19:33.208Z,2.13
2022-09-15T09:20:44.587Z,2.30
2022-09-15T09:21:58.854Z,2.38
2022-09-15T09:23:04.100Z,2.88
2022-09-15T09:24:06.997Z,2.00
2022-09-15T09:26:32.851Z,2.85
2022-09-15T09:27:35.143Z,2.33
2022-09-15T09:28:45.871Z,2.35
2022-09-15T09:29:49.888Z,2.45
2022-09-15T09:30:51.997Z,2.70
2022-09-15T09:31:56.567Z,1.85
2022-09-15T09:33:00.950Z,1.75
2022-09-15T09:34:33.629Z,2.75
2022-09-15T09:35:52.301Z,1.92
2022-09-15T09:36:59.355Z,2.45
2022-09-15T09:38:02.517Z,1.85
2022-09-15T09:39:04.355Z,1.85
2022-09-15T09:40:06.452Z,2.47
2022-09-15T09:41:25.490Z,2.08
2022-09-15T09:42:34.738Z,2.58
2022-09-15T09:43:36.818Z,4.05
2022-09-15T09:44:40.411Z,3.17
2022-09-15T09:45:41.980Z,2.92
2022-09-15T09:46:43.907Z,2.42
2022-09-15T09:47:46.452Z,3.58
2022-09-15T09:48:56.746Z,2.60
2022-09-15T09:49:59.495Z,2.83
2022-09-15T09:52:04.608Z,4.47
2022-09-15T09:53:32.364Z,6.00
2022-09-15T09:54:35.482Z,4.28
2022-09-15T09:55:37.332Z,2.55
2022-09-15T09:56:39.981Z,5.78
2022-09-15T09:57:41.727Z,12.45
2022-09-15T09:58:44.492Z,12.95
2022-09-15T09:59:48.819Z,5.97
2022-09-15T10:00:51.499Z,3.97
2022-09-15T10:02:28.815Z,3.10
2022-09-15T10:03:33.009Z,2.50
2022-09-15T10:04:35.095Z,2.67
2022-09-15T10:05:36.664Z,2.85
2022-09-15T10:06:39.695Z,2.92
2022-09-15T10:07:43.871Z,3.13
2022-09-15T10:09:03.636Z,3.10
2022-09-15T10:10:05.665Z,4.13
2022-09-15T10:11:10.375Z,3.60
2022-09-15T10:12:23.135Z,4.05
2022-09-15T10:13:24.705Z,2.78
2022-09-15T10:14:29.682Z,4.25
2022-09-15T10:15:34.766Z,3.53
2022-09-15T10:16:36.439Z,4.65
2022-09-15T10:17:43.532Z,4.90
2022-09-15T10:18:47.583Z,5.53
2022-09-15T10:19:53.937Z,3.33
2022-09-15T10:20:55.706Z,3.65
2022-09-15T10:22:00.268Z,3.70
2022-09-15T10:23:06.785Z,3.88
2022-09-15T10:24:31.179Z,3.20
2022-09-15T10:25:58.216Z,5.20
2022-09-15T10:27:19.506Z,4.00
2022-09-15T10:28:23.241Z,3.95
2022-09-15T10:29:24.705Z,3.90
2022-09-15T10:30:27.387Z,4.13
2022-09-15T10:31:31.579Z,4.25
2022-09-15T10:32:33.054Z,4.40
2022-09-15T10:33:44.984Z,4.55
2022-09-15T10:34:48.812Z,4.03
2022-09-15T10:35:51.277Z,4.13
2022-09-15T10:37:05.898Z,5.70
2022-09-15T10:38:15.827Z,4.57
2022-09-15T10:39:50.159Z,3.88
2022-09-15T10:41:18.030Z,5.43
2022-09-15T10:42:24.037Z,4.95
2022-09-15T10:43:58.119Z,4.75
2022-09-15T10:45:11.049Z,5.80
2022-09-15T10:46:26.797Z,4.03
2022-09-15T10:47:39.997Z,4.03
2022-09-15T10:48:54.334Z,5.25
2022-09-15T10:50:15.771Z,4.97
2022-09-15T10:51:27.959Z,4.93
2022-09-15T10:52:42.426Z,5.60
2022-09-15T10:53:57.171Z,5.10
2022-09-15T10:56:36.938Z,5.70
2022-09-15T10:58:02.689Z,4.88
2022-09-15T10:59:16.360Z,5.38
2022-09-15T11:00:23.086Z,4.75
2022-09-15T11:01:24.945Z,4.40
2022-09-15T11:02:45.259Z,4.57
2022-09-15T11:04:02.997Z,4.40
2022-09-15T11:05:32.439Z,5.50
2022-09-15T11:06:44.169Z,4.25
2022-09-15T11:08:00.647Z,5.15
2022-09-15T11:09:29.626Z,4.18
2022-09-15T11:10:42.342Z,6.47
2022-09-15T11:12:03.650Z,4.38
2022-09-15T11:13:29.766Z,5.20
2022-09-15T11:14:47.245Z,4.47
2022-09-15T11:16:06.730Z,4.22
2022-09-15T11:17:44.103Z,5.40
2022-09-15T11:19:04.282Z,5.40
2022-09-15T11:20:32.926Z,4.82
2022-09-15T11:21:41.365Z,4.20
2022-09-15T11:23:09.845Z,5.35
2022-09-15T11:24:22.575Z,6.10
2022-09-15T11:25:28.215Z,5.40
2022-09-15T11:26:52.592Z,4.70
2022-09-15T11:28:25.144Z,5.47
2022-09-15T11:29:40.467Z,5.90
2022-09-15T11:30:51.674Z,5.32
2022-09-15T11:33:18.030Z,5.95
2022-09-15T11:35:31.146Z,5.18
2022-09-15T11:37:03.131Z,6.35
2022-09-15T11:38:35.803Z,4.90
2022-09-15T11:39:46.223Z,4.35
2022-09-15T11:41:03.775Z,4.80
2022-09-15T11:42:14.552Z,6.03
2022-09-15T11:43:21.710Z,5.57
2022-09-15T11:44:27.810Z,5.72
2022-09-15T11:45:38.388Z,6.35
2022-09-15T11:47:04.819Z,4.40
2022-09-15T11:48:18.670Z,5.22
2022-09-15T11:49:30.116Z,5.00
2022-09-15T11:50:39.515Z,6.05
2022-09-15T11:51:50.732Z,5.05
2022-09-15T11:52:55.126Z,4.75
2022-09-15T11:54:17.299Z,6.03
2022-09-15T11:55:39.378Z,4.50
2022-09-15T11:56:46.431Z,4.90
2022-09-15T11:57:55.539Z,5.15
2022-09-15T11:59:23.303Z,4.75
2022-09-15T12:00:24.770Z,4.47
2022-09-15T12:01:56.968Z,5.93
2022-09-15T12:03:23.186Z,6.35
2022-09-15T12:04:39.262Z,5.50
2022-09-15T12:05:48.559Z,5.78
2022-09-15T12:08:15.414Z,4.20
2022-09-15T12:09:19.729Z,8.65
2022-09-15T12:10:27.569Z,4.90
2022-09-15T12:11:33.231Z,6.40
2022-09-15T12:12:36.103Z,7.07
2022-09-15T12:14:42.693Z,4.80
2022-09-15T12:15:46.567Z,4.75
2022-09-15T12:16:48.413Z,5.82
2022-09-15T12:18:06.449Z,5.78
2022-09-15T12:19:34.677Z,7.95
2022-09-15T12:20:48.625Z,5.35
2022-09-15T12:21:57.054Z,5.57
2022-09-15T12:23:09.615Z,6.03
2022-09-15T12:24:33.848Z,5.00
2022-09-15T12:25:55.874Z,6.25
2022-09-15T12:27:00.772Z,5.68
2022-09-15T12:28:23.942Z,7.43
2022-09-15T12:29:30.386Z,7.65
2022-09-15T12:30:41.448Z,6.47
2022-09-15T12:31:45.296Z,5.53
2022-09-15T12:32:47.587Z,7.22
2022-09-15T12:33:51.749Z,5.85
2022-09-15T12:35:25.708Z,6.43
2022-09-15T12:36:45.735Z,8.30
2022-09-15T12:38:00.488Z,6.03
2022-09-15T12:39:04.151Z,5.30
2022-09-15T12:40:07.925Z,7.78
2022-09-15T12:41:11.321Z,4.72
2022-09-15T12:42:23.303Z,9.15
2022-09-15T12:43:25.697Z,6.18
2022-09-15T12:44:38.169Z,6.00
2022-09-15T12:45:43.037Z,8.18
2022-09-15T12:46:52.172Z,7.13
2022-09-15T12:48:07.579Z,7.13
2022-09-15T12:49:18.029Z,7.18
2022-09-15T12:50:19.824Z,5.68
2022-09-15T12:51:25.360Z,6.45
2022-09-15T12:52:28.497Z,6.68
2022-09-15T12:54:40.107Z,7.72
2022-09-15T12:55:55.388Z,5.10
2022-09-15T12:56:58.159Z,5.10
2022-09-15T12:58:07.404Z,5.65
2022-09-15T12:59:15.024Z,5.03
2022-09-15T13:01:14.267Z,7.00
2022-09-15T13:02:42.534Z,4.47
2022-09-15T13:03:43.986Z,4.93
2022-09-15T13:04:54.625Z,4.80
2022-09-15T13:06:14.936Z,6.05
2022-09-15T13:07:16.347Z,6.35
2022-09-15T13:08:23.896Z,7.75
2022-09-15T13:09:27.498Z,5.03
2022-09-15T13:10:29.175Z,6.18
2022-09-15T13:11:34.669Z,4.70
2022-09-15T13:12:42.529Z,8.40
2022-09-15T13:13:52.571Z,4.90
2022-09-15T13:14:56.293Z,6.30
2022-09-15T13:15:58.051Z,6.70
2022-09-15T13:17:07.318Z,6.05
2022-09-15T13:18:11.544Z,5.10
2022-09-15T13:19:29.471Z,4.72
2022-09-15T13:20:38.157Z,7.38
2022-09-15T13:21:46.003Z,6.60
2022-09-15T13:22:51.585Z,7.63
2022-09-15T13:23:54.403Z,5.22
2022-09-15T13:25:02.084Z,8.27
2022-09-15T13:26:07.192Z,6.88
2022-09-15T13:27:09.674Z,4.88
2022-09-15T13:28:13.584Z,7.40
2022-09-15T13:29:16.946Z,8.38
2022-09-15T13:30:21.583Z,8.93
2022-09-15T13:31:45.785Z,10.60
2022-09-15T13:33:23.932Z,7.95
2022-09-15T13:35:09.227Z,7.60
2022-09-15T13:38:38.008Z,5.60
2022-09-15T13:40:10.779Z,4.68
2022-09-15T13:41:27.500Z,4.88
2022-09-15T13:42:35.586Z,6.85
2022-09-15T13:44:10.259Z,3.67
2022-09-15T13:45:45.800Z,6.25
2022-09-15T13:47:26.526Z,4.13
2022-09-15T13:49:06.976Z,6.43
2022-09-15T13:50:23.710Z,5.75
2022-09-15T13:51:29.225Z,4.30
2022-09-15T13:52:48.082Z,4.30
2022-09-15T13:53:56.442Z,4.65
2022-09-15T13:55:11.934Z,4.03
2022-09-15T13:56:26.875Z,4.30
2022-09-15T13:58:56.548Z,4.53
2022-09-15T14:00:03.429Z,6.07
2022-09-15T14:01:07.271Z,4.15
2022-09-15T14:02:09.674Z,5.85
2022-09-15T14:03:17.421Z,4.72
2022-09-15T14:04:29.113Z,3.70
2022-09-15T14:05:34.963Z,4.43
2022-09-15T14:06:43.144Z,4.18
2022-09-15T14:07:52.684Z,4.55
2022-09-15T14:08:58.824Z,5.65
2022-09-15T14:10:00.396Z,6.20
2022-09-15T14:11:08.337Z,5.30
2022-09-15T14:12:12.834Z,6.35
2022-09-15T14:13:17.873Z,5.63
2022-09-15T14:14:28.402Z,6.00
2022-09-15T14:15:30.175Z,5.47
2022-09-15T14:16:36.500Z,5.25
2022-09-15T14:17:45.491Z,5.82
2022-09-15T14:19:50.870Z,4.65
2022-09-15T14:21:00.564Z,6.10
2022-09-15T14:22:20.190Z,5.55
2022-09-15T14:23:21.669Z,4.07
2022-09-15T14:24:30.752Z,4.65
2022-09-15T14:25:32.329Z,5.07
2022-09-15T14:26:35.889Z,4.57
2022-09-15T14:27:43.596Z,4.75
2022-09-15T14:28:51.122Z,4.55
2022-09-15T14:29:57.884Z,4.55
2022-09-15T14:31:01.218Z,4.22
2022-09-15T14:32:04.245Z,6.20
2022-09-15T14:33:06.060Z,4.97
2022-09-15T14:34:15.562Z,3.83
2022-09-15T14:35:23.058Z,4.47
2022-09-15T14:36:32.648Z,5.20
2022-09-15T14:37:34.835Z,4.60
2022-09-15T14:38:36.416Z,4.40
2022-09-15T14:39:40.355Z,4.03
2022-09-15T14:40:41.917Z,5.45
2022-09-15T14:41:43.866Z,6.30
2022-09-15T14:42:45.652Z,4.75
2022-09-15T14:43:47.246Z,4.97
2022-09-15T14:46:11.998Z,6.15
2022-09-15T14:47:21.420Z,5.60
2022-09-15T14:48:28.128Z,6.03
2022-09-15T14:49:29.712Z,6.63
2022-09-15T14:50:33.328Z,6.20
2022-09-15T14:51:35.663Z,4.47
2022-09-15T14:53:06.578Z,5.18
2022-09-15T14:54:19.664Z,4.05
2022-09-15T14:55:25.781Z,4.13
2022-09-15T14:56:35.678Z,6.50
2022-09-15T14:57:41.814Z,3.92
2022-09-15T14:58:47.309Z,3.75
2022-09-15T14:59:55.299Z,4.80
2022-09-15T15:01:01.746Z,5.30
2022-09-15T15:02:32.837Z,5.20
2022-09-15T15:03:50.058Z,4.75
2022-09-15T15:05:14.521Z,4.65
2022-09-15T15:06:29.859Z,4.13
2022-09-15T15:07:34.697Z,4.10
2022-09-15T15:08:54.568Z,4.35
2022-09-15T15:10:00.551Z,6.78
2022-09-15T15:11:02.441Z,4.28
2022-09-15T15:12:14.355Z,5.05
2022-09-15T15:13:17.978Z,4.80
2022-09-15T15:14:19.948Z,5.00
2022-09-15T15:15:22.371Z,4.97
2022-09-15T15:16:27.563Z,5.53
2022-09-15T15:17:45.349Z,4.75
2022-09-15T15:18:46.883Z,4.05
2022-09-15T15:19:48.831Z,4.75